Time;durP1;ratioP1;P1;durP2;ratioP2;P2;SDS_P1;SDS_P2;PMS_P1;PMS_P2;Temp;Humidity;BMP_temperature;BMP_pressure;BME280_temperature;BME280_humidity;BME280_pressure;Samples;Min_cycle;Max_cycle;Signal;HPM_P1;HPM_P2
2021/09/10 00:02:15;;;;;;;15.88;11.60;;;;;;;17.05;67.88;98880.31;5110034;27;20046;-93
2021/09/10 00:04:41;;;;;;;16.58;11.45;;;;;;;16.99;67.62;98877.94;5106212;27;20119;-92
2021/09/10 00:07:07;;;;;;;15.48;11.48;;;;;;;17.00;67.74;98875.16;5110606;27;20047;-94
2021/09/10 00:09:34;;;;;;;17.73;11.68;;;;;;;17.06;67.90;98889.22;5103061;27;20508;-94
2021/09/10 00:12:00;;;;;;;14.32;10.85;;;;;;;17.10;67.58;98893.50;5108100;27;20040;-93
2021/09/10 00:14:26;;;;;;;16.67;12.38;;;;;;;17.08;67.87;98882.81;5108330;27;20493;-93
2021/09/10 00:16:51;;;;;;;18.23;11.65;;;;;;;16.96;67.57;98873.59;5111168;27;20394;-93
2021/09/10 00:19:17;;;;;;;16.85;12.25;;;;;;;16.96;67.69;98867.34;5109078;27;20028;-93
2021/09/10 00:21:43;;;;;;;18.27;11.70;;;;;;;16.97;67.67;98874.44;5108821;27;20068;-92
2021/09/10 00:24:09;;;;;;;17.13;11.93;;;;;;;17.01;68.08;98897.53;5101896;28;20032;-93
2021/09/10 00:26:36;;;;;;;16.60;11.68;;;;;;;16.91;67.99;98878.31;5106761;27;20039;-93
2021/09/10 00:29:02;;;;;;;14.98;11.65;;;;;;;16.92;68.33;98896.19;5110985;27;20293;-94
2021/09/10 00:31:28;;;;;;;17.20;11.98;;;;;;;16.88;68.32;98897.28;5107467;27;20059;-93
2021/09/10 00:33:54;;;;;;;17.88;12.50;;;;;;;16.93;68.49;98902.41;5106728;27;20485;-92
2021/09/10 00:36:20;;;;;;;15.60;11.95;;;;;;;16.72;68.50;98874.78;5107091;27;20467;-92
2021/09/10 00:38:45;;;;;;;18.27;11.82;;;;;;;16.85;68.20;98897.44;5109602;27;20044;-93
2021/09/10 00:41:11;;;;;;;21.73;12.32;;;;;;;16.80;68.06;98891.41;5114348;27;20028;-94
2021/09/10 00:43:39;;;;;;;15.82;11.27;;;;;;;16.73;68.11;98884.59;5109131;27;20043;-92
2021/09/10 00:46:05;;;;;;;16.25;11.40;;;;;;;16.76;68.03;98898.75;5105262;27;20043;-93
2021/09/10 00:48:31;;;;;;;16.40;12.43;;;;;;;16.73;68.32;98896.19;5106629;28;20040;-92
2021/09/10 00:50:57;;;;;;;16.17;11.75;;;;;;;16.62;69.16;98896.72;5114637;28;20091;-93
2021/09/10 00:53:23;;;;;;;19.95;12.00;;;;;;;16.52;69.31;98890.06;5110939;28;20126;-92
2021/09/10 00:55:49;;;;;;;18.30;12.48;;;;;;;16.52;69.81;98883.84;5115843;28;20071;-93
2021/09/10 00:58:15;;;;;;;18.38;12.43;;;;;;;16.62;69.51;98903.91;5105088;27;20056;-93
2021/09/10 01:00:43;;;;;;;18.00;12.10;;;;;;;16.42;69.27;98872.69;5114485;28;20074;-93
2021/09/10 01:03:10;;;;;;;19.80;12.23;;;;;;;16.48;68.78;98877.78;5107784;28;20032;-94
2021/09/10 01:05:36;;;;;;;16.25;12.02;;;;;;;16.57;68.56;98890.72;5107905;28;20545;-93
2021/09/10 01:08:02;;;;;;;15.35;11.82;;;;;;;16.56;68.59;98888.97;5108749;28;20066;-94
2021/09/10 01:10:29;;;;;;;18.58;12.48;;;;;;;16.45;68.89;98883.28;5105788;28;20055;-94
2021/09/10 01:12:57;;;;;;;17.70;11.85;;;;;;;16.54;68.96;98903.44;5110263;28;20050;-92
2021/09/10 01:15:23;;;;;;;18.88;12.50;;;;;;;16.43;69.49;98894.06;5111406;28;20503;-93
2021/09/10 01:17:54;;;;;;;18.10;11.82;;;;;;;16.38;69.81;98895.25;5107678;28;20045;-93
2021/09/10 01:20:23;;;;;;;18.48;12.25;;;;;;;16.26;70.17;98888.66;5108399;28;20035;-92
2021/09/10 01:22:49;;;;;;;17.02;12.40;;;;;;;16.26;70.58;98887.78;5103778;28;20040;-94
2021/09/10 01:25:18;;;;;;;17.42;12.40;;;;;;;16.16;70.40;98882.88;5106248;27;20510;-93
2021/09/10 01:27:46;;;;;;;16.08;11.95;;;;;;;16.09;70.05;98865.34;5115945;27;20043;-95
2021/09/10 01:30:13;;;;;;;19.60;12.27;;;;;;;16.15;70.26;98883.81;5106076;27;20039;-92
2021/09/10 01:32:39;;;;;;;20.48;12.55;;;;;;;16.12;70.73;98892.03;5116088;27;20040;-93
2021/09/10 01:35:07;;;;;;;20.35;11.95;;;;;;;16.15;71.08;98897.22;5116704;27;20035;-93
2021/09/10 01:37:33;;;;;;;16.52;11.85;;;;;;;16.11;70.90;98894.75;5117179;27;20509;-95
2021/09/10 01:39:59;;;;;;;18.20;12.25;;;;;;;16.02;71.19;98880.84;5109776;27;20068;-93
2021/09/10 01:42:26;;;;;;;19.42;12.68;;;;;;;15.94;71.00;98863.38;5111819;28;20039;-91
2021/09/10 01:44:53;;;;;;;17.20;12.50;;;;;;;16.06;70.95;98880.72;5114747;27;20046;-92
2021/09/10 01:47:19;;;;;;;17.83;11.73;;;;;;;16.05;70.89;98890.59;5114263;27;20035;-92
2021/09/10 01:49:45;;;;;;;17.70;12.55;;;;;;;15.91;71.05;98869.75;5119108;27;20035;-93
2021/09/10 01:52:11;;;;;;;17.50;12.40;;;;;;;15.97;71.34;98884.69;5111976;27;20036;-94
2021/09/10 01:54:37;;;;;;;18.65;12.52;;;;;;;15.90;71.68;98876.06;5114330;27;20048;-92
2021/09/10 01:57:03;;;;;;;17.40;12.15;;;;;;;15.96;72.05;98894.56;5111035;27;20039;-93
2021/09/10 01:59:34;;;;;;;18.58;12.68;;;;;;;15.88;72.19;98874.41;5110414;28;20032;-94
2021/09/10 02:02:00;;;;;;;19.48;12.73;;;;;;;15.76;72.38;98857.94;5113836;27;20067;-93
2021/09/10 02:04:26;;;;;;;18.13;12.90;;;;;;;15.83;72.29;98866.59;5112882;27;20080;-93
2021/09/10 02:06:52;;;;;;;19.33;11.98;;;;;;;15.89;72.12;98881.50;5121606;27;20044;-93
2021/09/10 02:09:18;;;;;;;18.35;12.50;;;;;;;15.78;72.30;98872.16;5113482;27;20031;-94
2021/09/10 02:11:44;;;;;;;16.85;12.40;;;;;;;15.79;72.33;98876.59;5108359;28;20047;-93
2021/09/10 02:14:10;;;;;;;17.42;12.23;;;;;;;15.80;73.00;98880.13;5117585;27;20040;-93
2021/09/10 02:16:37;;;;;;;17.00;12.38;;;;;;;15.70;72.98;98862.69;5115289;27;20042;-94
2021/09/10 02:19:03;;;;;;;17.35;12.88;;;;;;;15.71;73.12;98868.00;5111705;27;20479;-93
2021/09/10 02:21:29;;;;;;;17.08;11.98;;;;;;;15.72;72.72;98863.50;5110144;27;20043;-94
2021/09/10 02:23:55;;;;;;;17.98;12.75;;;;;;;15.72;72.95;98864.41;5106304;27;20465;-93
2021/09/10 02:26:21;;;;;;;19.83;13.18;;;;;;;15.68;73.13;98865.47;5116538;27;20040;-92
2021/09/10 02:28:46;;;;;;;18.13;13.15;;;;;;;15.66;73.47;98878.06;5109197;28;20039;-92
2021/09/10 02:31:12;;;;;;;19.45;13.23;;;;;;;15.65;73.52;98883.47;5107774;28;20685;-93
2021/09/10 02:33:40;;;;;;;17.92;12.52;;;;;;;15.56;73.45;98874.91;5111533;27;20489;-93
2021/09/10 02:36:05;;;;;;;16.80;13.07;;;;;;;15.64;74.14;98898.72;5110620;27;20044;-92
2021/09/10 02:38:31;;;;;;;19.58;13.23;;;;;;;15.39;73.80;98858.72;5115492;27;20036;-94
2021/09/10 02:40:57;;;;;;;19.25;13.18;;;;;;;15.56;74.04;98904.41;5107988;27;20047;-92
2021/09/10 02:43:23;;;;;;;21.42;12.60;;;;;;;15.50;74.11;98882.38;5121783;27;20063;-94
2021/09/10 02:45:49;;;;;;;17.67;12.63;;;;;;;15.51;74.01;98887.66;5107577;27;20041;-92
2021/09/10 02:48:15;;;;;;;20.40;13.50;;;;;;;15.45;74.29;98882.59;5117430;27;20040;-92
2021/09/10 02:50:42;;;;;;;18.38;12.68;;;;;;;15.47;74.25;98885.19;5114124;27;20046;-93
2021/09/10 02:53:08;;;;;;;19.30;12.52;;;;;;;15.51;74.12;98890.34;5109945;27;20051;-93
2021/09/10 02:55:34;;;;;;;20.02;12.13;;;;;;;15.41;74.28;98881.84;5111438;27;20036;-92
2021/09/10 02:57:59;;;;;;;18.90;13.00;;;;;;;15.30;74.38;98876.09;5106096;28;20481;-93
2021/09/10 03:00:25;;;;;;;17.10;12.43;;;;;;;15.36;74.44;98886.53;5108642;27;20052;-92
2021/09/10 03:02:52;;;;;;;21.67;13.18;;;;;;;15.32;74.71;98886.75;5107931;28;20047;-93
2021/09/10 03:05:17;;;;;;;20.63;13.93;;;;;;;15.35;75.29;98895.53;5109064;27;20031;-93
2021/09/10 03:07:45;;;;;;;19.58;13.05;;;;;;;15.22;75.28;98878.25;5106838;27;20040;-92
2021/09/10 03:10:11;;;;;;;19.42;12.95;;;;;;;15.21;75.24;98871.16;5101732;28;20084;-94
2021/09/10 03:12:39;;;;;;;19.33;13.25;;;;;;;15.31;74.88;98891.25;5109786;27;20051;-93
2021/09/10 03:15:07;;;;;;;19.40;13.35;;;;;;;15.22;75.16;98870.19;5113676;27;20093;-93
2021/09/10 03:17:33;;;;;;;18.05;12.45;;;;;;;15.27;75.41;98878.94;5113069;27;20036;-93
2021/09/10 03:19:59;;;;;;;19.75;13.75;;;;;;;15.31;75.09;98883.22;5106316;27;20040;-93
2021/09/10 03:22:29;;;;;;;19.88;13.27;;;;;;;15.20;75.24;98872.06;5103821;27;20039;-93
2021/09/10 03:24:56;;;;;;;22.77;14.10;;;;;;;15.26;75.55;98882.53;5114123;27;20048;-94
2021/09/10 03:27:22;;;;;;;18.00;13.43;;;;;;;15.12;75.38;98858.19;5112608;27;20039;-93
2021/09/10 03:29:48;;;;;;;18.13;12.50;;;;;;;15.08;75.62;98854.75;5120556;27;20448;-94
2021/09/10 03:32:14;;;;;;;17.27;12.68;;;;;;;15.13;76.19;98868.81;5117091;27;20039;-93
2021/09/10 03:34:40;;;;;;;18.02;12.50;;;;;;;15.17;75.85;98862.38;5112457;28;20048;-94
2021/09/10 03:37:07;;;;;;;20.52;13.15;;;;;;;15.17;75.88;98857.00;5111071;27;20044;-94
2021/09/10 03:39:33;;;;;;;20.98;14.40;;;;;;;15.28;75.68;98867.25;5109694;27;20036;-93
2021/09/10 03:42:00;;;;;;;21.15;14.32;;;;;;;15.24;75.75;98848.72;5107520;27;20554;-92
2021/09/10 03:44:27;;;;;;;19.65;13.98;;;;;;;15.39;74.89;98864.94;5107177;27;20058;-92
2021/09/10 03:46:53;;;;;;;23.35;13.25;;;;;;;15.43;74.52;98857.66;5109890;27;20525;-93
2021/09/10 03:49:18;;;;;;;20.05;14.05;;;;;;;15.45;74.37;98860.28;5106837;28;20036;-93
2021/09/10 03:51:44;;;;;;;20.42;14.40;;;;;;;15.55;73.90;98872.31;5117882;27;20050;-93
2021/09/10 03:54:10;;;;;;;19.73;13.77;;;;;;;15.49;74.25;98865.44;5112795;27;20036;-95
2021/09/10 03:56:36;;;;;;;19.75;14.20;;;;;;;15.33;75.00;98861.69;5108298;27;20032;-95
2021/09/10 03:59:03;;;;;;;19.00;14.07;;;;;;;15.23;75.21;98863.06;5105906;27;20044;-94
2021/09/10 04:01:29;;;;;;;19.55;13.38;;;;;;;15.16;75.16;98852.63;5110153;28;20075;-93
2021/09/10 04:03:56;;;;;;;21.30;13.77;;;;;;;15.16;75.53;98860.66;5107230;27;20224;-93
2021/09/10 04:06:22;;;;;;;20.30;12.82;;;;;;;15.15;74.94;98856.22;5108499;27;20039;-94
2021/09/10 04:08:59;;;;;;;18.23;12.80;;;;;;;15.22;75.27;98870.19;5109533;27;20062;-93
2021/09/10 04:11:27;;;;;;;20.70;13.80;;;;;;;15.13;75.73;98873.28;5110224;27;20038;-92
2021/09/10 04:13:53;;;;;;;22.33;14.25;;;;;;;14.94;76.35;98859.81;5108738;27;20035;-93
2021/09/10 04:16:20;;;;;;;19.13;13.93;;;;;;;15.03;76.85;98872.84;5108064;27;20044;-94
2021/09/10 04:18:46;;;;;;;20.70;14.48;;;;;;;14.93;76.68;98858.97;5102343;27;20569;-94
2021/09/10 04:21:12;;;;;;;19.80;13.98;;;;;;;15.00;76.50;98867.59;5105119;28;20130;-93
2021/09/10 04:23:38;;;;;;;19.48;14.05;;;;;;;15.01;76.11;98842.56;5105189;28;20740;-94
2021/09/10 04:26:04;;;;;;;19.90;14.18;;;;;;;15.09;75.66;98859.16;5113205;27;20039;-94
2021/09/10 04:28:30;;;;;;;20.58;13.93;;;;;;;15.14;75.65;98870.56;5111885;27;20044;-93
2021/09/10 04:30:56;;;;;;;19.52;13.98;;;;;;;14.92;76.06;98843.84;5106436;27;20135;-94
2021/09/10 04:33:23;;;;;;;20.15;13.20;;;;;;;14.99;76.13;98856.03;5112062;27;20036;-94
2021/09/10 04:35:49;;;;;;;18.35;12.73;;;;;;;14.95;76.14;98859.78;5106329;27;20040;-94
2021/09/10 04:38:15;;;;;;;19.95;13.45;;;;;;;14.86;76.42;98860.19;5109509;28;20047;-94
2021/09/10 04:40:42;;;;;;;22.77;13.60;;;;;;;14.91;76.65;98874.22;5105934;27;20118;-93
2021/09/10 04:43:08;;;;;;;20.88;13.43;;;;;;;14.80;76.42;98865.78;5108079;27;20551;-93
2021/09/10 04:45:34;;;;;;;18.70;13.75;;;;;;;14.70;77.29;98859.97;5112715;27;20428;-94
2021/09/10 04:48:00;;;;;;;20.13;12.75;;;;;;;14.73;77.34;98867.00;5111653;27;20047;-93
2021/09/10 04:50:27;;;;;;;20.35;13.82;;;;;;;14.66;77.38;98862.81;5098117;28;20055;-92
2021/09/10 04:52:53;;;;;;;18.92;13.27;;;;;;;14.73;77.30;98867.88;5102153;27;20064;-94
2021/09/10 04:55:19;;;;;;;19.27;13.45;;;;;;;14.72;77.58;98873.28;5119418;27;20066;-93
2021/09/10 04:57:46;;;;;;;24.75;14.82;;;;;;;14.76;77.85;98875.75;5111662;28;20051;-94
2021/09/10 05:00:13;;;;;;;20.17;14.65;;;;;;;14.76;77.83;98869.53;5118669;27;20051;-93
2021/09/10 05:02:39;;;;;;;23.23;15.60;;;;;;;14.79;77.72;98866.75;5102309;28;20058;-94
2021/09/10 05:05:07;;;;;;;21.63;14.07;;;;;;;14.76;77.48;98857.00;5108618;28;20044;-93
2021/09/10 05:07:34;;;;;;;21.80;14.07;;;;;;;14.79;77.32;98856.91;5118875;28;20084;-93
2021/09/10 05:10:00;;;;;;;21.95;13.80;;;;;;;14.84;77.39;98871.91;5109921;28;20036;-94
2021/09/10 05:12:26;;;;;;;19.77;14.00;;;;;;;14.80;76.93;98855.09;5102420;28;20497;-92
2021/09/10 05:14:52;;;;;;;20.60;13.52;;;;;;;15.05;76.90;98887.03;5105583;28;20085;-94
2021/09/10 05:17:18;;;;;;;18.77;13.25;;;;;;;15.06;76.45;98863.78;5103718;28;20036;-92
2021/09/10 05:19:43;;;;;;;23.40;14.32;;;;;;;15.11;76.47;98870.69;5110846;28;20043;-95
2021/09/10 05:22:09;;;;;;;24.88;13.38;;;;;;;15.13;76.61;98881.34;5116811;28;20396;-94
2021/09/10 05:24:39;;;;;;;23.83;14.88;;;;;;;15.15;76.35;98879.47;5108283;28;20089;-94
2021/09/10 05:27:05;;;;;;;21.33;13.70;;;;;;;15.13;76.38;98874.16;5128132;28;20130;-93
2021/09/10 05:29:31;;;;;;;20.90;14.02;;;;;;;15.15;76.31;98868.75;5114250;28;20075;-93
2021/09/10 05:31:57;;;;;;;25.85;14.80;;;;;;;15.31;76.00;98872.50;5123058;28;20131;-94
2021/09/10 05:34:23;;;;;;;20.25;14.45;;;;;;;15.22;75.58;98846.09;5107747;28;20077;-94
2021/09/10 05:36:49;;;;;;;20.98;13.63;;;;;;;15.53;75.07;98869.72;5112010;28;20032;-94
2021/09/10 05:39:15;;;;;;;21.58;13.55;;;;;;;15.49;75.18;98853.84;5108315;28;20044;-94
2021/09/10 05:41:44;;;;;;;19.77;14.43;;;;;;;15.68;74.66;98864.56;5108635;28;20093;-93
2021/09/10 05:44:10;;;;;;;20.42;14.13;;;;;;;15.69;74.12;98852.91;5109110;28;20104;-93
2021/09/10 05:46:36;;;;;;;21.17;14.70;;;;;;;15.92;73.98;98865.28;5108672;28;20040;-94
2021/09/10 05:49:03;;;;;;;22.70;14.18;;;;;;;15.87;73.39;98843.16;5118710;28;20094;-93
2021/09/10 05:51:36;;;;;;;20.35;14.07;;;;;;;16.08;72.84;98855.56;5112353;28;20032;-93
2021/09/10 05:54:02;;;;;;;20.15;14.60;;;;;;;15.89;73.06;98831.41;5108892;28;20517;-93
2021/09/10 05:56:28;;;;;;;21.98;14.48;;;;;;;16.00;73.11;98861.28;5105333;28;20050;-93
2021/09/10 05:58:56;;;;;;;21.15;14.40;;;;;;;15.96;73.01;98859.69;5110146;28;20126;-92
2021/09/10 06:01:22;;;;;;;22.73;14.32;;;;;;;16.04;72.89;98862.00;5104174;28;20156;-95
2021/09/10 06:03:54;;;;;;;22.23;14.75;;;;;;;16.14;72.61;98871.34;5106230;28;20068;-93
2021/09/10 06:06:24;;;;;;;23.77;15.43;;;;;;;16.21;72.24;98870.09;5111713;28;20059;-93
2021/09/10 06:08:50;;;;;;;25.60;14.20;;;;;;;16.26;72.15;98875.25;5118731;27;20051;-93
2021/09/10 06:11:16;;;;;;;21.98;15.00;;;;;;;16.28;71.33;98859.94;5116943;28;20044;-93
2021/09/10 06:13:42;;;;;;;22.70;15.23;;;;;;;16.54;71.29;98881.94;5114241;28;20040;-92
2021/09/10 06:16:10;;;;;;;23.00;15.15;;;;;;;16.63;70.91;98870.75;5116277;27;20046;-93
2021/09/10 06:18:36;;;;;;;22.75;14.45;;;;;;;16.77;70.49;98873.63;5110734;27;20103;-94
2021/09/10 06:21:03;;;;;;;26.92;15.85;;;;;;;16.97;69.54;98883.38;5114372;27;20066;-93
2021/09/10 06:23:29;;;;;;;21.42;14.55;;;;;;;17.12;69.66;98888.91;5111490;27;20520;-93
2021/09/10 06:25:55;;;;;;;23.02;15.70;;;;;;;17.19;68.91;98882.25;5113821;27;20051;-94
2021/09/10 06:28:21;;;;;;;24.42;14.70;;;;;;;17.33;68.37;98887.78;5112559;28;20040;-94
2021/09/10 06:30:47;;;;;;;22.88;15.57;;;;;;;17.41;67.92;98874.81;5118164;28;20126;-94
2021/09/10 06:33:15;;;;;;;25.40;16.60;;;;;;;17.62;67.42;98882.66;5126508;27;20059;-94
2021/09/10 06:35:41;;;;;;;26.70;16.83;;;;;;;17.74;66.96;98882.00;5140814;27;20043;-95
2021/09/10 06:38:07;;;;;;;31.95;19.05;;;;;;;17.79;66.62;98888.00;5121763;27;20040;-95
2021/09/10 06:40:33;;;;;;;24.17;17.63;;;;;;;17.79;66.33;98869.16;5115970;28;20043;-94
2021/09/10 06:43:00;;;;;;;26.67;16.85;;;;;;;17.96;66.46;98876.34;5116456;27;20044;-95
2021/09/10 06:45:26;;;;;;;30.70;16.73;;;;;;;18.25;64.72;98893.53;5121429;27;20036;-95
2021/09/10 06:47:52;;;;;;;22.30;15.32;;;;;;;18.23;64.68;98881.97;5119767;27;20043;-94
2021/09/10 06:50:21;;;;;;;25.95;16.58;;;;;;;18.10;65.13;98894.41;5103247;27;20044;-95
2021/09/10 06:52:47;;;;;;;;;;;;;;;17.99;65.87;98904.91;5119256;27;20520;-94
2021/09/10 06:55:13;;;;;;;23.17;15.20;;;;;;;18.04;66.15;98894.72;5098661;28;19920;-95
2021/09/10 06:57:42;;;;;;;20.70;14.73;;;;;;;18.41;65.23;98900.72;5111577;28;20043;-95
2021/09/10 07:00:09;;;;;;;22.80;15.38;;;;;;;18.66;63.73;98906.44;5109890;28;20050;-94
2021/09/10 07:02:36;;;;;;;20.00;14.32;;;;;;;18.82;62.77;98889.41;5118469;28;20496;-94
2021/09/10 07:05:02;;;;;;;23.60;14.95;;;;;;;19.07;62.36;98889.69;5112237;28;20089;-93
2021/09/10 07:07:31;;;;;;;26.30;15.55;;;;;;;19.24;61.13;98898.63;5111149;27;20078;-95
2021/09/10 07:09:59;;;;;;;23.52;14.95;;;;;;;19.32;61.50;98895.44;5117990;28;20036;-93
2021/09/10 07:12:25;;;;;;;19.88;14.13;;;;;;;19.43;61.16;98868.69;5125405;27;20051;-94
2021/09/10 07:14:51;;;;;;;18.83;13.80;;;;;;;19.70;60.36;98879.63;5099423;28;20048;-94
2021/09/10 07:17:17;;;;;;;19.30;13.57;;;;;;;19.96;59.80;98877.97;5119196;28;20078;-94
2021/09/10 07:19:46;;;;;;;17.27;12.45;;;;;;;20.11;59.56;98879.69;5118981;28;20039;-94
2021/09/10 07:22:11;;;;;;;;;;;;;;;20.29;58.66;98892.97;5117172;28;20047;-94
2021/09/10 07:24:39;;;;;;;19.75;13.57;;;;;;;20.35;59.06;98889.00;5116679;27;19919;-94
2021/09/10 07:27:05;;;;;;;19.38;13.60;;;;;;;19.93;60.03;98870.09;5137125;27;20085;-94
2021/09/10 07:29:31;;;;;;;19.60;13.73;;;;;;;20.29;59.09;98891.13;5102168;28;20040;-94
2021/09/10 07:31:58;;;;;;;16.88;12.68;;;;;;;20.17;58.67;98866.75;5108804;28;20044;-95
2021/09/10 07:34:27;;;;;;;20.50;13.50;;;;;;;20.45;58.27;98900.91;5116461;28;20425;-95
2021/09/10 07:36:59;;;;;;;18.50;13.10;;;;;;;20.14;59.84;98889.41;5119730;28;20040;-94
2021/09/10 07:39:25;;;;;;;23.65;14.15;;;;;;;20.31;59.65;98897.28;5108469;28;20481;-94
2021/09/10 07:41:53;;;;;;;19.80;13.95;;;;;;;20.34;59.38;98895.34;5099342;28;20037;-95
2021/09/10 07:44:19;;;;;;;24.02;13.60;;;;;;;20.33;58.26;98866.63;5099221;28;20046;-95
2021/09/10 07:46:47;;;;;;;23.23;13.68;;;;;;;20.45;57.63;98872.09;5098832;28;20075;-93
2021/09/10 07:49:13;;;;;;;18.92;12.25;;;;;;;20.65;57.08;98868.09;5110878;28;20039;-94
2021/09/10 07:51:42;;;;;;;20.92;13.45;;;;;;;20.87;56.22;98886.44;5119347;28;20518;-94
2021/09/10 07:54:10;;;;;;;17.08;12.40;;;;;;;20.93;56.45;98879.75;5099816;28;20032;-95
2021/09/10 07:56:37;;;;;;;18.23;12.52;;;;;;;21.04;55.48;98874.47;5118747;28;20081;-94
2021/09/10 07:59:04;;;;;;;18.58;12.38;;;;;;;21.19;55.15;98871.66;5118663;28;20092;-95
2021/09/10 08:01:30;;;;;;;17.55;12.48;;;;;;;21.34;54.74;98876.06;5120545;27;20040;-94
2021/09/10 08:03:56;;;;;;;21.48;12.45;;;;;;;21.37;55.21;98885.78;5103331;27;20430;-94
2021/09/10 08:06:22;;;;;;;17.30;12.07;;;;;;;21.65;53.26;98884.75;5119608;27;20046;-96
2021/09/10 08:08:49;;;;;;;18.13;11.95;;;;;;;21.66;52.88;98876.50;5120474;27;20069;-94
2021/09/10 08:11:15;;;;;;;18.90;11.10;;;;;;;21.88;51.84;98880.38;5120784;27;20063;-95
2021/09/10 08:13:41;;;;;;;15.13;11.02;;;;;;;22.00;51.97;98873.22;5118098;28;20044;-95
2021/09/10 08:16:11;;;;;;;14.00;10.98;;;;;;;22.11;51.30;98849.78;5119166;28;20046;-94
2021/09/10 08:18:38;;;;;;;16.35;11.30;;;;;;;22.35;50.01;98843.56;5118310;28;20036;-95
2021/09/10 08:21:04;;;;;;;15.48;11.20;;;;;;;22.31;51.07;98866.44;5115145;28;20046;-95
2021/09/10 08:23:29;;;;;;;15.15;11.38;;;;;;;22.50;50.05;98863.25;5111156;28;20043;-93
2021/09/10 08:25:55;;;;;;;14.65;11.05;;;;;;;22.62;50.04;98858.75;5118290;28;20055;-95
2021/09/10 08:28:21;;;;;;;17.98;11.18;;;;;;;22.73;49.13;98846.13;5103290;28;20043;-95
2021/09/10 08:30:48;;;;;;;13.35;10.60;;;;;;;23.10;48.96;98877.75;5096400;28;20497;-92
2021/09/10 08:33:16;;;;;;;14.70;11.00;;;;;;;23.04;48.74;98854.66;5112142;28;20043;-93
2021/09/10 08:35:42;;;;;;;12.95;10.13;;;;;;;23.41;49.36;98870.78;5121007;28;20047;-94
2021/09/10 08:38:08;;;;;;;17.25;11.63;;;;;;;23.52;47.14;98870.78;5123127;27;20035;-96
2021/09/10 08:40:34;;;;;;;13.43;10.73;;;;;;;23.78;47.34;98866.03;5111881;27;20531;-94
2021/09/10 08:43:00;;;;;;;15.15;11.00;;;;;;;24.03;47.19;98879.50;5098063;28;20123;-96
2021/09/10 08:45:29;;;;;;;16.63;11.05;;;;;;;24.02;47.01;98859.63;5103166;27;20043;-93
2021/09/10 08:47:55;;;;;;;17.02;10.88;;;;;;;24.31;46.32;98869.94;5109354;28;20048;-94
2021/09/10 08:50:23;;;;;;;15.77;11.32;;;;;;;24.35;46.02;98875.03;5099486;28;20525;-95
2021/09/10 08:52:50;;;;;;;18.27;11.23;;;;;;;24.25;45.99;98867.78;5098088;28;20020;-94
2021/09/10 08:55:16;;;;;;;16.58;10.70;;;;;;;24.65;45.63;98878.06;5098865;28;20160;-95
2021/09/10 08:57:46;;;;;;;15.15;11.05;;;;;;;24.89;45.48;98876.00;5102624;28;20040;-95
2021/09/10 09:00:13;;;;;;;14.73;10.98;;;;;;;25.10;44.90;98872.47;5137248;27;20411;-95
2021/09/10 09:02:39;;;;;;;15.38;10.48;;;;;;;25.26;43.86;98863.88;5097883;28;20048;-95
2021/09/10 09:05:08;;;;;;;16.98;10.93;;;;;;;25.43;43.43;98855.09;5112070;28;20128;-95
2021/09/10 09:07:37;;;;;;;;;;;;;;;25.69;42.28;98866.44;5111517;28;20431;-94
2021/09/10 09:10:04;;;;;;;14.40;10.30;;;;;;;25.79;42.55;98864.63;5113318;28;19991;-94
2021/09/10 09:12:31;;;;;;;13.98;10.23;;;;;;;25.69;42.31;98835.63;5096924;28;20061;-93
2021/09/10 09:14:59;;;;;;;17.83;10.10;;;;;;;25.86;42.20;98845.88;5110509;28;20436;-96
2021/09/10 09:17:28;;;;;;;13.27;10.10;;;;;;;26.05;41.79;98869.66;5117088;28;20135;-94
2021/09/10 09:20:16;;;;;;;18.60;10.90;;;;;;;26.12;41.52;98864.53;5118460;28;20039;-95
2021/09/10 09:22:58;;;;;;;14.63;10.95;;;;;;;25.90;41.27;98841.91;5116560;28;20071;-94
2021/09/10 09:25:25;;;;;;;14.07;11.02;;;;;;;25.38;42.37;98835.59;5120630;28;20423;-93
2021/09/10 09:27:52;;;;;;;12.52;10.05;;;;;;;25.67;42.23;98848.50;5099077;28;20048;-94
2021/09/10 09:30:39;;;;;;;14.65;10.45;;;;;;;26.01;41.24;98849.13;5116947;28;20457;-95
2021/09/10 09:33:05;;;;;;;16.27;10.85;;;;;;;26.13;41.50;98841.69;5113893;28;20051;-96
2021/09/10 09:35:32;;;;;;;14.73;10.77;;;;;;;25.64;41.96;98824.28;5116985;28;20123;-94
2021/09/10 09:38:10;;;;;;;12.80;10.48;;;;;;;25.50;41.65;98829.06;5117032;28;20090;-95
2021/09/10 09:40:37;;;;;;;14.98;9.73;;;;;;;25.58;41.83;98831.97;5096933;28;20404;-94
2021/09/10 09:43:16;;;;;;;12.43;10.13;;;;;;;25.93;40.61;98836.19;5134784;27;20126;-93
2021/09/10 09:45:42;;;;;;;17.83;9.98;;;;;;;26.19;39.84;98835.69;5141566;27;20043;-94
2021/09/10 09:48:11;;;;;;;13.70;10.00;;;;;;;26.34;39.67;98830.72;5112111;27;20376;-94
2021/09/10 09:50:38;;;;;;;16.77;9.95;;;;;;;26.42;39.43;98819.97;5100580;28;20047;-94
2021/09/10 09:53:07;;;;;;;14.43;10.00;;;;;;;26.62;38.65;98812.72;5100406;28;20043;-95
2021/09/10 09:55:33;;;;;;;16.23;9.88;;;;;;;26.78;38.66;98826.66;5114652;27;20066;-96
2021/09/10 09:58:05;;;;;;;17.23;10.40;;;;;;;26.40;39.44;98808.34;5141880;27;20035;-95
2021/09/10 10:00:33;;;;;;;13.40;9.90;;;;;;;25.89;40.05;98807.47;5141078;27;20055;-94
2021/09/10 10:03:01;;;;;;;11.68;9.40;;;;;;;25.95;39.97;98801.47;5141032;27;20043;-95
2021/09/10 10:05:28;;;;;;;14.35;9.90;;;;;;;26.33;40.30;98809.91;5141756;27;20047;-95
2021/09/10 10:07:59;;;;;;;15.23;10.43;;;;;;;26.61;38.77;98809.13;5142085;27;20039;-95
2021/09/10 10:10:32;;;;;;;13.77;9.95;;;;;;;26.45;38.44;98825.13;5129762;27;20099;-95
2021/09/10 10:13:05;;;;;;;12.85;10.15;;;;;;;26.42;38.76;98799.03;5121737;28;20035;-91
2021/09/10 10:15:43;;;;;;;14.70;9.65;;;;;;;26.53;37.95;98778.94;5118966;28;20035;-94
2021/09/10 10:18:09;;;;;;;22.13;10.00;;;;;;;26.26;37.93;98786.94;5129592;27;20039;-96
2021/09/10 10:20:52;;;;;;;13.88;9.68;;;;;;;26.62;38.11;98799.06;5141336;27;20045;-94
2021/09/10 10:23:55;;;;;;;15.82;10.70;;;;;;;26.94;37.16;98797.94;5119132;28;20040;-96
2021/09/10 10:26:37;;;;;;;13.90;10.02;;;;;;;27.10;37.02;98781.81;5078312;28;20060;-94
2021/09/10 10:29:12;;;;;;;15.80;9.48;;;;;;;27.31;36.05;98791.72;5077489;28;20044;-94
2021/09/10 10:32:02;;;;;;;13.45;10.15;;;;;;;27.16;36.20;98785.81;5075064;28;20047;-94
2021/09/10 10:34:30;;;;;;;13.05;9.85;;;;;;;26.86;35.40;98778.69;5077914;28;20040;-94
2021/09/10 10:36:56;;;;;;;11.43;9.27;;;;;;;27.19;36.43;98789.09;5077888;28;20056;-94
2021/09/10 10:42:48;;;;;;;14.35;9.60;;;;;;;27.71;35.00;98788.69;5135808;27;20363;-96
2021/09/10 10:45:14;;;;;;;11.18;8.82;;;;;;;27.83;33.98;98779.31;5135425;27;20480;-95
2021/09/10 10:47:40;;;;;;;16.90;9.95;;;;;;;27.98;34.19;98787.03;5136037;28;20112;-96
2021/09/10 10:50:31;;;;;;;11.82;9.07;;;;;;;27.96;31.91;98773.50;5137377;27;20051;-96
2021/09/10 10:52:57;;;;;;;12.10;9.20;;;;;;;28.12;32.75;98791.97;5135101;27;20039;-94
2021/09/10 10:55:25;;;;;;;12.40;9.30;;;;;;;27.94;31.78;98780.16;5134916;28;20396;-96
2021/09/10 10:57:54;;;;;;;14.10;8.80;;;;;;;27.44;31.62;98767.69;5135594;28;20116;-95
2021/09/10 11:00:46;;;;;;;11.13;8.60;;;;;;;27.76;30.78;98770.00;5134887;28;20511;-94
2021/09/10 11:03:48;;;;;;;10.90;8.15;;;;;;;27.95;30.17;98781.84;5135669;28;20044;-95
2021/09/10 11:06:37;;;;;;;13.30;8.98;;;;;;;28.09;30.08;98767.69;5074970;28;20151;-95
2021/09/10 11:09:08;;;;;;;12.02;9.13;;;;;;;28.15;30.78;98755.25;5072559;28;20564;-96
2021/09/10 11:11:34;;;;;;;12.57;8.65;;;;;;;27.97;30.74;98745.16;5075157;28;20041;-95
2021/09/10 11:14:06;;;;;;;12.13;9.07;;;;;;;28.00;30.50;98754.94;5074214;28;20051;-94
2021/09/10 11:16:33;;;;;;;10.20;8.50;;;;;;;27.95;30.84;98741.72;5072760;28;20041;-94
2021/09/10 11:18:59;;;;;;;12.52;9.05;;;;;;;28.19;30.82;98754.81;5073889;28;20080;-95
2021/09/10 11:21:29;;;;;;;12.55;9.20;;;;;;;28.09;30.50;98728.56;5070767;28;20056;-95
2021/09/10 11:23:56;;;;;;;13.82;9.05;;;;;;;28.35;29.91;98748.66;5072153;28;20052;-95
2021/09/10 11:26:33;;;;;;;11.63;8.82;;;;;;;28.25;29.73;98734.19;5072787;28;20426;-94